Terminal Aerodrome Forecast
Issued by NWS

Home | Current Version | Previous Version | Text Only | Print | Product List | Glossary On
Versions: 1 2 3 4 5 6 7 8 9 10 11 12 13 14 15 16 17 18 19 20 21 22 23 24 25 26 27 28 29 30 31 32 33 34 35 36 37 38 39
000
FTUS45 KBOU 260433 AAD
TAFAPA
TAF AMD
KAPA 260433Z 2605/2624 08005KT P6SM VCTS SCT070CB BKN100
      TEMPO 2605/2606 -SHRA BKN050
     FM260600 26007KT P6SM VCSH SCT060 BKN090 BKN150
     FM261200 19006KT P6SM SCT030 BKN080
      TEMPO 2612/2615 BKN030
     FM261800 12013KT P6SM VCTS SCT050CB BKN100
      TEMPO 2620/2624 3SM TSRAGS BKN050CB=

USA.gov is the U.S. government's official web portal to all federal, state and local government web resources and services.